sensor_id;sensor_type;location;lat;lon;timestamp;P1;durP1;ratioP1;P2;durP2;ratioP2
65831;SDS011;52593;42.648;23.332;2024-03-23T00:55:58;14.43;;;5.90;;
65831;SDS011;52593;42.648;23.332;2024-03-23T00:58:24;15.18;;;5.72;;
65831;SDS011;52593;42.648;23.332;2024-03-23T01:00:49;13.93;;;5.70;;
65831;SDS011;52593;42.648;23.332;2024-03-23T01:03:15;18.60;;;6.20;;
65831;SDS011;52593;42.648;23.332;2024-03-23T01:05:40;19.57;;;6.43;;
65831;SDS011;52593;42.648;23.332;2024-03-23T01:08:06;16.93;;;6.43;;
65831;SDS011;52593;42.648;23.332;2024-03-23T01:10:31;16.83;;;6.10;;
65831;SDS011;52593;42.648;23.332;2024-03-23T01:12:57;16.50;;;6.05;;
65831;SDS011;52593;42.648;23.332;2024-03-23T01:15:22;18.67;;;6.60;;
65831;SDS011;52593;42.648;23.332;2024-03-23T01:17:48;16.83;;;6.63;;
65831;SDS011;52593;42.648;23.332;2024-03-23T01:20:13;22.43;;;6.63;;
65831;SDS011;52593;42.648;23.332;2024-03-23T01:22:39;20.45;;;5.57;;
65831;SDS011;52593;42.648;23.332;2024-03-23T01:25:04;21.13;;;6.77;;
65831;SDS011;52593;42.648;23.332;2024-03-23T01:27:30;17.60;;;6.32;;
65831;SDS011;52593;42.648;23.332;2024-03-23T01:30:03;21.20;;;5.93;;
65831;SDS011;52593;42.648;23.332;2024-03-23T01:32:28;19.20;;;6.18;;
65831;SDS011;52593;42.648;23.332;2024-03-23T01:34:54;17.90;;;6.47;;
65831;SDS011;52593;42.648;23.332;2024-03-23T01:37:19;18.03;;;6.17;;
65831;SDS011;52593;42.648;23.332;2024-03-23T01:39:45;16.73;;;6.60;;
65831;SDS011;52593;42.648;23.332;2024-03-23T01:42:10;19.13;;;6.28;;
65831;SDS011;52593;42.648;23.332;2024-03-23T01:44:36;18.30;;;6.50;;
65831;SDS011;52593;42.648;23.332;2024-03-23T01:47:03;20.88;;;7.30;;
65831;SDS011;52593;42.648;23.332;2024-03-23T01:49:28;21.03;;;6.90;;
65831;SDS011;52593;42.648;23.332;2024-03-23T01:51:54;17.63;;;5.80;;
65831;SDS011;52593;42.648;23.332;2024-03-23T01:54:20;19.88;;;6.88;;
65831;SDS011;52593;42.648;23.332;2024-03-23T01:56:46;17.00;;;6.43;;
65831;SDS011;52593;42.648;23.332;2024-03-23T01:59:12;18.00;;;6.28;;
65831;SDS011;52593;42.648;23.332;2024-03-23T02:01:38;16.73;;;6.72;;
65831;SDS011;52593;42.648;23.332;2024-03-23T02:04:03;15.03;;;6.13;;
65831;SDS011;52593;42.648;23.332;2024-03-23T02:06:30;19.48;;;6.45;;
65831;SDS011;52593;42.648;23.332;2024-03-23T02:08:56;24.00;;;6.63;;
65831;SDS011;52593;42.648;23.332;2024-03-23T02:11:21;18.70;;;6.30;;
65831;SDS011;52593;42.648;23.332;2024-03-23T02:13:47;19.15;;;6.18;;
65831;SDS011;52593;42.648;23.332;2024-03-23T02:16:13;16.50;;;5.87;;
65831;SDS011;52593;42.648;23.332;2024-03-23T02:18:38;16.50;;;5.68;;
65831;SDS011;52593;42.648;23.332;2024-03-23T02:21:04;16.67;;;6.13;;
65831;SDS011;52593;42.648;23.332;2024-03-23T02:23:30;17.45;;;6.38;;
65831;SDS011;52593;42.648;23.332;2024-03-23T02:25:55;14.70;;;6.27;;
65831;SDS011;52593;42.648;23.332;2024-03-23T02:28:21;14.97;;;6.40;;
65831;SDS011;52593;42.648;23.332;2024-03-23T02:30:48;17.20;;;6.50;;
65831;SDS011;52593;42.648;23.332;2024-03-23T02:33:14;20.77;;;6.75;;
65831;SDS011;52593;42.648;23.332;2024-03-23T02:35:39;20.83;;;6.13;;
65831;SDS011;52593;42.648;23.332;2024-03-23T02:38:05;15.90;;;6.93;;
65831;SDS011;52593;42.648;23.332;2024-03-23T02:40:30;17.00;;;6.70;;
65831;SDS011;52593;42.648;23.332;2024-03-23T02:42:56;18.43;;;6.60;;
65831;SDS011;52593;42.648;23.332;2024-03-23T02:45:21;13.67;;;5.63;;
65831;SDS011;52593;42.648;23.332;2024-03-23T02:47:47;16.75;;;5.88;;
65831;SDS011;52593;42.648;23.332;2024-03-23T02:50:16;19.02;;;6.68;;
65831;SDS011;52593;42.648;23.332;2024-03-23T02:52:43;16.37;;;5.97;;
65831;SDS011;52593;42.648;23.332;2024-03-23T02:55:08;18.20;;;6.20;;
65831;SDS011;52593;42.648;23.332;2024-03-23T02:57:34;15.37;;;5.63;;
65831;SDS011;52593;42.648;23.332;2024-03-23T02:59:59;15.87;;;5.50;;
65831;SDS011;52593;42.648;23.332;2024-03-23T03:02:25;20.40;;;6.05;;
65831;SDS011;52593;42.648;23.332;2024-03-23T03:04:50;16.40;;;5.50;;
65831;SDS011;52593;42.648;23.332;2024-03-23T03:07:16;13.97;;;5.60;;
65831;SDS011;52593;42.648;23.332;2024-03-23T03:09:41;15.47;;;5.70;;
65831;SDS011;52593;42.648;23.332;2024-03-23T03:12:07;13.70;;;5.72;;
65831;SDS011;52593;42.648;23.332;2024-03-23T03:14:33;15.17;;;5.53;;
65831;SDS011;52593;42.648;23.332;2024-03-23T03:16:59;15.52;;;5.35;;
65831;SDS011;52593;42.648;23.332;2024-03-23T03:19:24;12.37;;;5.50;;
65831;SDS011;52593;42.648;23.332;2024-03-23T03:21:50;15.27;;;5.35;;
65831;SDS011;52593;42.648;23.332;2024-03-23T03:24:15;15.87;;;5.03;;
65831;SDS011;52593;42.648;23.332;2024-03-23T03:26:41;21.67;;;5.88;;
65831;SDS011;52593;42.648;23.332;2024-03-23T03:29:07;14.13;;;5.47;;
65831;SDS011;52593;42.648;23.332;2024-03-23T03:31:33;14.35;;;5.60;;
65831;SDS011;52593;42.648;23.332;2024-03-23T03:33:58;14.97;;;5.73;;
65831;SDS011;52593;42.648;23.332;2024-03-23T03:36:23;15.37;;;5.57;;
65831;SDS011;52593;42.648;23.332;2024-03-23T03:38:49;14.37;;;5.43;;
65831;SDS011;52593;42.648;23.332;2024-03-23T03:41:15;15.88;;;5.53;;
65831;SDS011;52593;42.648;23.332;2024-03-23T03:43:40;11.60;;;5.13;;
65831;SDS011;52593;42.648;23.332;2024-03-23T03:46:06;16.60;;;6.13;;
65831;SDS011;52593;42.648;23.332;2024-03-23T03:48:33;21.75;;;5.95;;
65831;SDS011;52593;42.648;23.332;2024-03-23T03:50:58;14.43;;;5.23;;
65831;SDS011;52593;42.648;23.332;2024-03-23T03:53:24;15.53;;;5.43;;
65831;SDS011;52593;42.648;23.332;2024-03-23T03:55:49;13.30;;;5.40;;
65831;SDS011;52593;42.648;23.332;2024-03-23T03:58:15;16.83;;;5.47;;
65831;SDS011;52593;42.648;23.332;2024-03-23T04:00:40;15.53;;;5.43;;
65831;SDS011;52593;42.648;23.332;2024-03-23T04:03:06;17.40;;;5.40;;
65831;SDS011;52593;42.648;23.332;2024-03-23T04:05:31;13.57;;;5.60;;
65831;SDS011;52593;42.648;23.332;2024-03-23T04:07:57;16.10;;;5.63;;
65831;SDS011;52593;42.648;23.332;2024-03-23T04:10:23;15.65;;;5.70;;
65831;SDS011;52593;42.648;23.332;2024-03-23T04:12:48;13.93;;;5.60;;
65831;SDS011;52593;42.648;23.332;2024-03-23T04:15:14;15.00;;;6.00;;
65831;SDS011;52593;42.648;23.332;2024-03-23T04:17:40;15.68;;;6.45;;
65831;SDS011;52593;42.648;23.332;2024-03-23T04:20:07;18.08;;;6.03;;
65831;SDS011;52593;42.648;23.332;2024-03-23T04:22:36;19.23;;;6.72;;
65831;SDS011;52593;42.648;23.332;2024-03-23T04:25:05;17.43;;;6.43;;
65831;SDS011;52593;42.648;23.332;2024-03-23T04:27:38;17.15;;;5.80;;
65831;SDS011;52593;42.648;23.332;2024-03-23T04:30:06;15.55;;;6.40;;
65831;SDS011;52593;42.648;23.332;2024-03-23T04:32:35;25.13;;;6.50;;
65831;SDS011;52593;42.648;23.332;2024-03-23T04:35:01;20.83;;;6.45;;
65831;SDS011;52593;42.648;23.332;2024-03-23T04:37:28;15.93;;;6.13;;
65831;SDS011;52593;42.648;23.332;2024-03-23T04:39:53;16.10;;;5.68;;
65831;SDS011;52593;42.648;23.332;2024-03-23T04:42:19;18.70;;;6.30;;
65831;SDS011;52593;42.648;23.332;2024-03-23T04:44:44;14.50;;;6.22;;
65831;SDS011;52593;42.648;23.332;2024-03-23T04:47:10;16.77;;;6.40;;
65831;SDS011;52593;42.648;23.332;2024-03-23T04:49:36;17.87;;;6.27;;
65831;SDS011;52593;42.648;23.332;2024-03-23T04:52:02;17.58;;;6.20;;
65831;SDS011;52593;42.648;23.332;2024-03-23T04:54:29;16.52;;;6.53;;
65831;SDS011;52593;42.648;23.332;2024-03-23T04:56:54;19.30;;;6.33;;
65831;SDS011;52593;42.648;23.332;2024-03-23T04:59:21;18.85;;;6.63;;
65831;SDS011;52593;42.648;23.332;2024-03-23T05:01:46;21.37;;;6.70;;
65831;SDS011;52593;42.648;23.332;2024-03-23T05:04:12;15.82;;;6.13;;
65831;SDS011;52593;42.648;23.332;2024-03-23T05:06:38;16.87;;;5.90;;
65831;SDS011;52593;42.648;23.332;2024-03-23T05:09:03;19.63;;;6.55;;
65831;SDS011;52593;42.648;23.332;2024-03-23T05:11:32;18.17;;;6.60;;
65831;SDS011;52593;42.648;23.332;2024-03-23T05:13:58;16.02;;;6.60;;
65831;SDS011;52593;42.648;23.332;2024-03-23T05:16:24;21.25;;;7.05;;
65831;SDS011;52593;42.648;23.332;2024-03-23T05:18:51;20.55;;;7.10;;
65831;SDS011;52593;42.648;23.332;2024-03-23T05:21:17;22.20;;;9.40;;
65831;SDS011;52593;42.648;23.332;2024-03-23T05:23:42;35.33;;;11.07;;
65831;SDS011;52593;42.648;23.332;2024-03-23T05:26:08;30.73;;;9.87;;
65831;SDS011;52593;42.648;23.332;2024-03-23T05:28:34;26.83;;;10.55;;
65831;SDS011;52593;42.648;23.332;2024-03-23T05:31:00;27.57;;;9.53;;
65831;SDS011;52593;42.648;23.332;2024-03-23T05:33:25;26.65;;;9.23;;
65831;SDS011;52593;42.648;23.332;2024-03-23T05:35:57;22.67;;;8.90;;
65831;SDS011;52593;42.648;23.332;2024-03-23T05:38:24;21.85;;;8.57;;
65831;SDS011;52593;42.648;23.332;2024-03-23T05:40:56;22.93;;;9.00;;
65831;SDS011;52593;42.648;23.332;2024-03-23T05:43:25;18.57;;;7.87;;
65831;SDS011;52593;42.648;23.332;2024-03-23T05:45:55;23.17;;;8.27;;
65831;SDS011;52593;42.648;23.332;2024-03-23T05:48:20;23.73;;;8.25;;
65831;SDS011;52593;42.648;23.332;2024-03-23T05:50:46;22.90;;;8.48;;
65831;SDS011;52593;42.648;23.332;2024-03-23T05:53:12;21.92;;;8.48;;
65831;SDS011;52593;42.648;23.332;2024-03-23T05:55:39;20.93;;;8.30;;
65831;SDS011;52593;42.648;23.332;2024-03-23T05:58:05;20.80;;;8.93;;
65831;SDS011;52593;42.648;23.332;2024-03-23T06:00:30;26.97;;;9.10;;
65831;SDS011;52593;42.648;23.332;2024-03-23T06:02:56;23.77;;;8.70;;
65831;SDS011;52593;42.648;23.332;2024-03-23T06:05:21;24.57;;;9.10;;
65831;SDS011;52593;42.648;23.332;2024-03-23T06:07:46;23.17;;;8.90;;
65831;SDS011;52593;42.648;23.332;2024-03-23T06:10:12;28.23;;;9.03;;
65831;SDS011;52593;42.648;23.332;2024-03-23T06:12:37;23.73;;;8.27;;
65831;SDS011;52593;42.648;23.332;2024-03-23T06:15:03;26.57;;;9.43;;
65831;SDS011;52593;42.648;23.332;2024-03-23T06:17:29;23.00;;;9.00;;
65831;SDS011;52593;42.648;23.332;2024-03-23T06:19:54;19.77;;;7.80;;
65831;SDS011;52593;42.648;23.332;2024-03-23T06:22:19;27.80;;;10.03;;
65831;SDS011;52593;42.648;23.332;2024-03-23T06:24:45;26.33;;;9.30;;
65831;SDS011;52593;42.648;23.332;2024-03-23T06:27:11;25.13;;;9.93;;
65831;SDS011;52593;42.648;23.332;2024-03-23T06:29:36;22.92;;;9.18;;
65831;SDS011;52593;42.648;23.332;2024-03-23T06:32:02;26.87;;;9.30;;
65831;SDS011;52593;42.648;23.332;2024-03-23T06:34:28;23.15;;;9.43;;
65831;SDS011;52593;42.648;23.332;2024-03-23T06:36:54;23.43;;;9.00;;
65831;SDS011;52593;42.648;23.332;2024-03-23T06:39:19;26.43;;;10.47;;
65831;SDS011;52593;42.648;23.332;2024-03-23T06:41:51;31.30;;;9.43;;
65831;SDS011;52593;42.648;23.332;2024-03-23T06:44:18;23.53;;;8.83;;
65831;SDS011;52593;42.648;23.332;2024-03-23T06:46:44;25.10;;;9.13;;
65831;SDS011;52593;42.648;23.332;2024-03-23T06:49:10;20.48;;;8.30;;
65831;SDS011;52593;42.648;23.332;2024-03-23T06:51:35;22.50;;;8.43;;
65831;SDS011;52593;42.648;23.332;2024-03-23T06:54:02;25.67;;;9.52;;
65831;SDS011;52593;42.648;23.332;2024-03-23T06:56:28;23.50;;;9.05;;
65831;SDS011;52593;42.648;23.332;2024-03-23T06:58:54;22.20;;;9.27;;
65831;SDS011;52593;42.648;23.332;2024-03-23T07:01:20;22.00;;;8.55;;
65831;SDS011;52593;42.648;23.332;2024-03-23T07:03:46;20.00;;;8.03;;
65831;SDS011;52593;42.648;23.332;2024-03-23T07:06:12;17.10;;;6.97;;
65831;SDS011;52593;42.648;23.332;2024-03-23T07:08:37;15.40;;;7.43;;
65831;SDS011;52593;42.648;23.332;2024-03-23T07:11:02;16.87;;;6.83;;
65831;SDS011;52593;42.648;23.332;2024-03-23T07:13:28;22.73;;;8.15;;
65831;SDS011;52593;42.648;23.332;2024-03-23T07:15:54;18.57;;;7.37;;
65831;SDS011;52593;42.648;23.332;2024-03-23T07:18:23;19.17;;;7.50;;
65831;SDS011;52593;42.648;23.332;2024-03-23T07:20:52;20.27;;;7.00;;
65831;SDS011;52593;42.648;23.332;2024-03-23T07:23:18;22.58;;;7.05;;
65831;SDS011;52593;42.648;23.332;2024-03-23T07:25:44;20.43;;;7.80;;
65831;SDS011;52593;42.648;23.332;2024-03-23T07:28:09;17.17;;;6.53;;
65831;SDS011;52593;42.648;23.332;2024-03-23T07:30:35;19.50;;;7.27;;
65831;SDS011;52593;42.648;23.332;2024-03-23T07:33:01;16.90;;;6.70;;
65831;SDS011;52593;42.648;23.332;2024-03-23T07:35:26;20.50;;;6.72;;
65831;SDS011;52593;42.648;23.332;2024-03-23T07:37:51;17.50;;;6.57;;
65831;SDS011;52593;42.648;23.332;2024-03-23T07:40:17;19.63;;;6.83;;
65831;SDS011;52593;42.648;23.332;2024-03-23T07:42:42;18.58;;;6.85;;
65831;SDS011;52593;42.648;23.332;2024-03-23T07:45:08;15.57;;;6.10;;
65831;SDS011;52593;42.648;23.332;2024-03-23T07:47:34;18.30;;;6.22;;
65831;SDS011;52593;42.648;23.332;2024-03-23T07:50:00;17.27;;;6.10;;
65831;SDS011;52593;42.648;23.332;2024-03-23T07:52:28;19.20;;;6.23;;
65831;SDS011;52593;42.648;23.332;2024-03-23T07:54:54;17.00;;;5.93;;
65831;SDS011;52593;42.648;23.332;2024-03-23T07:57:19;18.93;;;6.50;;
65831;SDS011;52593;42.648;23.332;2024-03-23T07:59:45;15.00;;;5.25;;
65831;SDS011;52593;42.648;23.332;2024-03-23T08:02:10;15.53;;;5.93;;
65831;SDS011;52593;42.648;23.332;2024-03-23T08:04:36;16.77;;;6.40;;
65831;SDS011;52593;42.648;23.332;2024-03-23T08:07:01;17.73;;;5.90;;
65831;SDS011;52593;42.648;23.332;2024-03-23T08:09:27;16.30;;;5.90;;
65831;SDS011;52593;42.648;23.332;2024-03-23T08:11:53;17.13;;;6.67;;
65831;SDS011;52593;42.648;23.332;2024-03-23T08:14:19;15.77;;;6.60;;
65831;SDS011;52593;42.648;23.332;2024-03-23T08:16:44;13.63;;;5.93;;
65831;SDS011;52593;42.648;23.332;2024-03-23T08:19:15;15.13;;;6.13;;
65831;SDS011;52593;42.648;23.332;2024-03-23T08:21:40;20.37;;;6.27;;
65831;SDS011;52593;42.648;23.332;2024-03-23T08:24:06;14.32;;;6.30;;
65831;SDS011;52593;42.648;23.332;2024-03-23T08:26:32;18.10;;;5.60;;
65831;SDS011;52593;42.648;23.332;2024-03-23T08:28:58;16.33;;;6.30;;
65831;SDS011;52593;42.648;23.332;2024-03-23T08:31:23;18.47;;;6.53;;
65831;SDS011;52593;42.648;23.332;2024-03-23T08:33:48;13.83;;;6.23;;
65831;SDS011;52593;42.648;23.332;2024-03-23T08:36:14;15.20;;;6.43;;
65831;SDS011;52593;42.648;23.332;2024-03-23T08:38:40;16.77;;;6.75;;
65831;SDS011;52593;42.648;23.332;2024-03-23T08:41:06;14.03;;;6.17;;
65831;SDS011;52593;42.648;23.332;2024-03-23T08:43:35;16.63;;;6.70;;
65831;SDS011;52593;42.648;23.332;2024-03-23T08:48:31;18.77;;;6.55;;
65831;SDS011;52593;42.648;23.332;2024-03-23T08:51:03;15.10;;;6.57;;
65831;SDS011;52593;42.648;23.332;2024-03-23T08:53:32;16.83;;;7.53;;
65831;SDS011;52593;42.648;23.332;2024-03-23T08:55:59;19.30;;;6.40;;
65831;SDS011;52593;42.648;23.332;2024-03-23T08:58:26;17.67;;;6.32;;
65831;SDS011;52593;42.648;23.332;2024-03-23T09:00:53;16.95;;;7.32;;
65831;SDS011;52593;42.648;23.332;2024-03-23T09:03:23;22.63;;;7.67;;
65831;SDS011;52593;42.648;23.332;2024-03-23T09:05:49;14.75;;;6.70;;
65831;SDS011;52593;42.648;23.332;2024-03-23T09:08:16;19.55;;;6.80;;
65831;SDS011;52593;42.648;23.332;2024-03-23T09:10:41;18.83;;;7.07;;
65831;SDS011;52593;42.648;23.332;2024-03-23T09:13:08;14.07;;;5.63;;
65831;SDS011;52593;42.648;23.332;2024-03-23T09:15:34;15.60;;;5.50;;
65831;SDS011;52593;42.648;23.332;2024-03-23T09:18:02;16.88;;;6.50;;
65831;SDS011;52593;42.648;23.332;2024-03-23T09:20:28;19.77;;;6.97;;
65831;SDS011;52593;42.648;23.332;2024-03-23T09:22:54;18.95;;;6.47;;
65831;SDS011;52593;42.648;23.332;2024-03-23T09:25:19;31.20;;;7.30;;
65831;SDS011;52593;42.648;23.332;2024-03-23T09:27:48;14.80;;;6.65;;
65831;SDS011;52593;42.648;23.332;2024-03-23T09:30:14;16.33;;;6.90;;
65831;SDS011;52593;42.648;23.332;2024-03-23T09:32:43;16.07;;;6.20;;
65831;SDS011;52593;42.648;23.332;2024-03-23T09:35:09;17.30;;;6.00;;
65831;SDS011;52593;42.648;23.332;2024-03-23T09:37:35;16.38;;;6.10;;
65831;SDS011;52593;42.648;23.332;2024-03-23T09:40:01;14.23;;;6.17;;
65831;SDS011;52593;42.648;23.332;2024-03-23T09:42:26;14.93;;;6.43;;
65831;SDS011;52593;42.648;23.332;2024-03-23T09:44:52;16.40;;;5.65;;
65831;SDS011;52593;42.648;23.332;2024-03-23T09:47:18;14.07;;;5.87;;
65831;SDS011;52593;42.648;23.332;2024-03-23T09:49:43;14.27;;;5.87;;
65831;SDS011;52593;42.648;23.332;2024-03-23T09:52:09;13.43;;;5.40;;
65831;SDS011;52593;42.648;23.332;2024-03-23T09:54:35;14.90;;;5.27;;
65831;SDS011;52593;42.648;23.332;2024-03-23T09:57:01;15.35;;;5.70;;
65831;SDS011;52593;42.648;23.332;2024-03-23T09:59:26;16.97;;;5.43;;
65831;SDS011;52593;42.648;23.332;2024-03-23T10:01:54;14.17;;;5.30;;
65831;SDS011;52593;42.648;23.332;2024-03-23T10:04:36;13.52;;;4.93;;
65831;SDS011;52593;42.648;23.332;2024-03-23T10:09:38;15.60;;;6.15;;
65831;SDS011;52593;42.648;23.332;2024-03-23T10:12:08;16.05;;;6.03;;
65831;SDS011;52593;42.648;23.332;2024-03-23T10:14:34;15.70;;;6.30;;
65831;SDS011;52593;42.648;23.332;2024-03-23T10:17:14;18.80;;;6.50;;
65831;SDS011;52593;42.648;23.332;2024-03-23T10:19:42;12.82;;;5.78;;
65831;SDS011;52593;42.648;23.332;2024-03-23T10:22:18;15.00;;;5.80;;
65831;SDS011;52593;42.648;23.332;2024-03-23T10:24:44;16.98;;;5.95;;
65831;SDS011;52593;42.648;23.332;2024-03-23T10:27:17;16.27;;;6.40;;
65831;SDS011;52593;42.648;23.332;2024-03-23T10:29:47;14.27;;;6.13;;
65831;SDS011;52593;42.648;23.332;2024-03-23T10:32:14;16.75;;;6.22;;
65831;SDS011;52593;42.648;23.332;2024-03-23T10:34:40;16.17;;;6.30;;
65831;SDS011;52593;42.648;23.332;2024-03-23T10:37:06;17.07;;;5.90;;
65831;SDS011;52593;42.648;23.332;2024-03-23T10:39:36;16.17;;;7.10;;
65831;SDS011;52593;42.648;23.332;2024-03-23T10:42:06;14.55;;;6.45;;
65831;SDS011;52593;42.648;23.332;2024-03-23T10:44:33;15.13;;;6.30;;
65831;SDS011;52593;42.648;23.332;2024-03-23T10:47:00;19.83;;;6.47;;
65831;SDS011;52593;42.648;23.332;2024-03-23T10:49:28;19.42;;;11.13;;
65831;SDS011;52593;42.648;23.332;2024-03-23T10:51:57;17.48;;;6.75;;
65831;SDS011;52593;42.648;23.332;2024-03-23T10:54:24;13.95;;;6.10;;
65831;SDS011;52593;42.648;23.332;2024-03-23T10:56:52;15.10;;;6.13;;
65831;SDS011;52593;42.648;23.332;2024-03-23T10:59:23;13.90;;;5.57;;
65831;SDS011;52593;42.648;23.332;2024-03-23T11:01:55;12.35;;;5.85;;
65831;SDS011;52593;42.648;23.332;2024-03-23T11:07:00;16.08;;;5.32;;
65831;SDS011;52593;42.648;23.332;2024-03-23T11:12:24;13.43;;;5.47;;
65831;SDS011;52593;42.648;23.332;2024-03-23T11:17:28;15.40;;;5.80;;
65831;SDS011;52593;42.648;23.332;2024-03-23T11:22:38;11.55;;;4.95;;
65831;SDS011;52593;42.648;23.332;2024-03-23T11:25:17;12.25;;;5.40;;
65831;SDS011;52593;42.648;23.332;2024-03-23T11:27:45;11.25;;;4.93;;
65831;SDS011;52593;42.648;23.332;2024-03-23T11:30:20;11.83;;;5.10;;
65831;SDS011;52593;42.648;23.332;2024-03-23T11:32:48;11.35;;;5.45;;
65831;SDS011;52593;42.648;23.332;2024-03-23T11:35:25;12.23;;;5.50;;
65831;SDS011;52593;42.648;23.332;2024-03-23T11:40:30;13.47;;;4.73;;
65831;SDS011;52593;42.648;23.332;2024-03-23T11:42:59;12.15;;;5.22;;
65831;SDS011;52593;42.648;23.332;2024-03-23T11:45:26;14.32;;;5.45;;
65831;SDS011;52593;42.648;23.332;2024-03-23T11:48:02;11.52;;;4.97;;
65831;SDS011;52593;42.648;23.332;2024-03-23T11:50:31;12.90;;;4.88;;
65831;SDS011;52593;42.648;23.332;2024-03-23T11:53:07;13.23;;;5.27;;
65831;SDS011;52593;42.648;23.332;2024-03-23T11:55:41;12.13;;;4.80;;
65831;SDS011;52593;42.648;23.332;2024-03-23T11:58:07;12.48;;;4.80;;
65831;SDS011;52593;42.648;23.332;2024-03-23T12:00:33;15.13;;;5.00;;
65831;SDS011;52593;42.648;23.332;2024-03-23T12:03:00;10.73;;;4.75;;
65831;SDS011;52593;42.648;23.332;2024-03-23T12:05:26;13.07;;;5.03;;
65831;SDS011;52593;42.648;23.332;2024-03-23T12:07:52;10.98;;;5.00;;
65831;SDS011;52593;42.648;23.332;2024-03-23T12:10:19;11.23;;;5.17;;
65831;SDS011;52593;42.648;23.332;2024-03-23T12:12:44;12.95;;;5.38;;
65831;SDS011;52593;42.648;23.332;2024-03-23T12:15:10;14.00;;;5.20;;
65831;SDS011;52593;42.648;23.332;2024-03-23T12:17:37;12.43;;;5.13;;
65831;SDS011;52593;42.648;23.332;2024-03-23T12:20:03;13.57;;;4.90;;
65831;SDS011;52593;42.648;23.332;2024-03-23T12:22:29;13.68;;;5.15;;
65831;SDS011;52593;42.648;23.332;2024-03-23T12:24:55;13.38;;;4.80;;
65831;SDS011;52593;42.648;23.332;2024-03-23T12:27:21;13.67;;;4.57;;
65831;SDS011;52593;42.648;23.332;2024-03-23T12:29:48;12.10;;;4.75;;
65831;SDS011;52593;42.648;23.332;2024-03-23T12:32:14;9.77;;;3.97;;
65831;SDS011;52593;42.648;23.332;2024-03-23T12:34:39;9.30;;;4.22;;
65831;SDS011;52593;42.648;23.332;2024-03-23T12:37:06;9.98;;;4.40;;
65831;SDS011;52593;42.648;23.332;2024-03-23T12:39:31;13.33;;;5.03;;
65831;SDS011;52593;42.648;23.332;2024-03-23T12:41:57;12.32;;;4.35;;
65831;SDS011;52593;42.648;23.332;2024-03-23T12:44:23;10.40;;;4.23;;
65831;SDS011;52593;42.648;23.332;2024-03-23T12:46:48;10.57;;;4.10;;
65831;SDS011;52593;42.648;23.332;2024-03-23T12:49:14;10.88;;;4.53;;
65831;SDS011;52593;42.648;23.332;2024-03-23T12:51:39;8.57;;;3.50;;
65831;SDS011;52593;42.648;23.332;2024-03-23T12:54:13;10.25;;;3.47;;
65831;SDS011;52593;42.648;23.332;2024-03-23T12:56:39;7.17;;;3.03;;
65831;SDS011;52593;42.648;23.332;2024-03-23T12:59:04;8.47;;;3.20;;
65831;SDS011;52593;42.648;23.332;2024-03-23T13:01:29;8.17;;;2.43;;
65831;SDS011;52593;42.648;23.332;2024-03-23T13:03:55;8.00;;;2.60;;
65831;SDS011;52593;42.648;23.332;2024-03-23T13:06:20;6.63;;;2.30;;
65831;SDS011;52593;42.648;23.332;2024-03-23T13:08:46;8.30;;;2.50;;
65831;SDS011;52593;42.648;23.332;2024-03-23T13:11:12;6.18;;;2.50;;
65831;SDS011;52593;42.648;23.332;2024-03-23T13:13:39;5.90;;;2.60;;
65831;SDS011;52593;42.648;23.332;2024-03-23T13:16:05;6.03;;;2.05;;
65831;SDS011;52593;42.648;23.332;2024-03-23T13:18:31;6.90;;;2.23;;
65831;SDS011;52593;42.648;23.332;2024-03-23T13:20:57;6.20;;;2.23;;
65831;SDS011;52593;42.648;23.332;2024-03-23T13:23:23;5.35;;;2.30;;
65831;SDS011;52593;42.648;23.332;2024-03-23T13:25:49;8.48;;;2.20;;
65831;SDS011;52593;42.648;23.332;2024-03-23T13:28:19;8.18;;;2.40;;
65831;SDS011;52593;42.648;23.332;2024-03-23T13:30:54;8.83;;;2.40;;
65831;SDS011;52593;42.648;23.332;2024-03-23T13:33:21;5.75;;;1.60;;
65831;SDS011;52593;42.648;23.332;2024-03-23T13:35:50;3.90;;;1.00;;
65831;SDS011;52593;42.648;23.332;2024-03-23T13:38:21;5.07;;;1.20;;
65831;SDS011;52593;42.648;23.332;2024-03-23T13:40:53;4.23;;;1.17;;
65831;SDS011;52593;42.648;23.332;2024-03-23T13:43:20;4.93;;;0.90;;
65831;SDS011;52593;42.648;23.332;2024-03-23T13:45:50;3.80;;;0.90;;
65831;SDS011;52593;42.648;23.332;2024-03-23T13:48:19;7.00;;;1.10;;
65831;SDS011;52593;42.648;23.332;2024-03-23T13:50:45;3.85;;;1.00;;
65831;SDS011;52593;42.648;23.332;2024-03-23T13:53:13;3.50;;;1.20;;
65831;SDS011;52593;42.648;23.332;2024-03-23T13:55:45;3.20;;;0.90;;
65831;SDS011;52593;42.648;23.332;2024-03-23T13:58:12;4.75;;;1.15;;
65831;SDS011;52593;42.648;23.332;2024-03-23T14:00:37;5.27;;;1.37;;
65831;SDS011;52593;42.648;23.332;2024-03-23T14:03:03;4.18;;;1.25;;
65831;SDS011;52593;42.648;23.332;2024-03-23T14:05:28;3.30;;;1.10;;
65831;SDS011;52593;42.648;23.332;2024-03-23T14:07:54;3.37;;;1.07;;
65831;SDS011;52593;42.648;23.332;2024-03-23T14:10:19;3.53;;;1.20;;
65831;SDS011;52593;42.648;23.332;2024-03-23T14:12:45;3.13;;;1.07;;
65831;SDS011;52593;42.648;23.332;2024-03-23T14:15:10;3.47;;;1.20;;
65831;SDS011;52593;42.648;23.332;2024-03-23T14:17:36;3.35;;;1.33;;
65831;SDS011;52593;42.648;23.332;2024-03-23T14:20:01;4.03;;;1.43;;
65831;SDS011;52593;42.648;23.332;2024-03-23T14:22:30;4.05;;;1.48;;
65831;SDS011;52593;42.648;23.332;2024-03-23T14:24:56;3.13;;;1.00;;
65831;SDS011;52593;42.648;23.332;2024-03-23T14:27:21;3.53;;;1.25;;
65831;SDS011;52593;42.648;23.332;2024-03-23T14:29:47;3.38;;;1.17;;
65831;SDS011;52593;42.648;23.332;2024-03-23T14:32:13;3.43;;;1.20;;
65831;SDS011;52593;42.648;23.332;2024-03-23T14:34:40;3.60;;;1.38;;
65831;SDS011;52593;42.648;23.332;2024-03-23T14:37:05;4.15;;;1.20;;
65831;SDS011;52593;42.648;23.332;2024-03-23T14:39:31;3.30;;;1.10;;
65831;SDS011;52593;42.648;23.332;2024-03-23T14:41:59;5.15;;;1.23;;
65831;SDS011;52593;42.648;23.332;2024-03-23T14:44:27;3.55;;;1.30;;
65831;SDS011;52593;42.648;23.332;2024-03-23T14:46:53;4.35;;;1.30;;
65831;SDS011;52593;42.648;23.332;2024-03-23T14:49:20;4.30;;;1.40;;
65831;SDS011;52593;42.648;23.332;2024-03-23T14:51:46;4.67;;;1.77;;
65831;SDS011;52593;42.648;23.332;2024-03-23T14:54:11;5.68;;;1.10;;
65831;SDS011;52593;42.648;23.332;2024-03-23T14:56:38;3.37;;;1.10;;
65831;SDS011;52593;42.648;23.332;2024-03-23T14:59:03;3.10;;;0.90;;
65831;SDS011;52593;42.648;23.332;2024-03-23T15:01:29;7.43;;;1.07;;
65831;SDS011;52593;42.648;23.332;2024-03-23T15:03:55;10.73;;;1.70;;
65831;SDS011;52593;42.648;23.332;2024-03-23T15:06:20;5.67;;;1.10;;
65831;SDS011;52593;42.648;23.332;2024-03-23T15:08:45;4.67;;;0.90;;
65831;SDS011;52593;42.648;23.332;2024-03-23T15:11:11;6.93;;;1.05;;
65831;SDS011;52593;42.648;23.332;2024-03-23T15:13:37;3.87;;;0.77;;
65831;SDS011;52593;42.648;23.332;2024-03-23T15:16:04;6.38;;;1.00;;
65831;SDS011;52593;42.648;23.332;2024-03-23T15:18:30;3.33;;;0.80;;
65831;SDS011;52593;42.648;23.332;2024-03-23T15:21:00;3.72;;;0.98;;
65831;SDS011;52593;42.648;23.332;2024-03-23T15:23:27;6.30;;;1.10;;
65831;SDS011;52593;42.648;23.332;2024-03-23T15:25:54;3.50;;;0.98;;
65831;SDS011;52593;42.648;23.332;2024-03-23T15:28:20;3.75;;;1.00;;
65831;SDS011;52593;42.648;23.332;2024-03-23T15:30:45;6.63;;;1.13;;
65831;SDS011;52593;42.648;23.332;2024-03-23T15:33:11;4.30;;;1.35;;